createdAt,value
2023-05-21T00:00:02.433Z,18.38
2023-05-21T00:02:41.081Z,18.95
2023-05-21T00:05:13.790Z,19.30
2023-05-21T00:07:45.888Z,20.52
2023-05-21T00:10:14.261Z,20.80
2023-05-21T00:12:42.680Z,22.25
2023-05-21T00:15:12.776Z,22.55
2023-05-21T00:17:41.245Z,19.42
2023-05-21T00:20:10.109Z,22.02
2023-05-21T00:22:38.445Z,22.00
2023-05-21T00:25:07.353Z,22.92
2023-05-21T00:27:35.511Z,23.77
2023-05-21T00:30:04.110Z,20.58
2023-05-21T00:32:34.920Z,22.17
2023-05-21T00:35:02.975Z,21.00
2023-05-21T00:37:34.491Z,23.98
2023-05-21T00:40:02.857Z,22.70
2023-05-21T00:42:30.984Z,25.45
2023-05-21T00:44:59.382Z,24.42
2023-05-21T00:47:29.783Z,21.60
2023-05-21T00:49:59.657Z,22.67
2023-05-21T00:52:27.865Z,20.75
2023-05-21T00:54:56.701Z,21.38
2023-05-21T00:57:27.989Z,22.15
2023-05-21T00:59:56.104Z,23.85
2023-05-21T01:02:26.366Z,22.27
2023-05-21T01:04:56.280Z,22.63
2023-05-21T01:07:25.950Z,24.38
2023-05-21T01:09:54.924Z,26.30
2023-05-21T01:12:24.648Z,23.92
2023-05-21T01:14:53.365Z,22.13
2023-05-21T01:17:24.342Z,22.40
2023-05-21T01:19:54.918Z,24.33
2023-05-21T01:22:25.112Z,30.08
2023-05-21T01:24:56.662Z,24.27
2023-05-21T01:27:24.853Z,26.70
2023-05-21T01:29:53.064Z,25.23
2023-05-21T01:32:27.927Z,25.20
2023-05-21T01:35:02.029Z,27.55
2023-05-21T01:37:36.237Z,25.27
2023-05-21T01:40:11.823Z,23.50
2023-05-21T01:42:44.066Z,21.98
2023-05-21T01:45:15.130Z,24.45
2023-05-21T01:47:46.339Z,24.88
2023-05-21T01:50:15.481Z,25.08
2023-05-21T01:52:50.878Z,25.55
2023-05-21T01:55:24.849Z,27.67
2023-05-21T01:57:53.991Z,23.05
2023-05-21T02:00:23.726Z,24.60
2023-05-21T02:02:52.760Z,24.10
2023-05-21T02:05:21.245Z,24.92
2023-05-21T02:07:49.852Z,25.20
2023-05-21T02:10:18.188Z,25.33
2023-05-21T02:12:47.787Z,25.17
2023-05-21T02:15:18.255Z,22.50
2023-05-21T02:17:46.891Z,24.92
2023-05-21T02:20:15.584Z,27.40
2023-05-21T02:22:45.522Z,23.90
2023-05-21T02:25:16.003Z,28.02
2023-05-21T02:27:46.614Z,28.02
2023-05-21T02:30:17.152Z,25.83
2023-05-21T02:32:45.539Z,25.90
2023-05-21T02:35:14.663Z,27.77
2023-05-21T02:37:44.233Z,25.33
2023-05-21T02:40:13.473Z,28.23
2023-05-21T02:42:42.689Z,21.92
2023-05-21T02:45:16.748Z,26.08
2023-05-21T02:47:45.605Z,25.38
2023-05-21T02:50:15.311Z,26.10
2023-05-21T02:52:53.493Z,27.88
2023-05-21T02:55:21.596Z,25.30
2023-05-21T02:57:49.846Z,28.80
2023-05-21T03:00:19.476Z,25.88
2023-05-21T03:02:47.696Z,23.02
2023-05-21T03:05:15.979Z,27.25
2023-05-21T03:07:44.223Z,26.98
2023-05-21T03:10:12.556Z,26.00
2023-05-21T03:12:40.719Z,26.08
2023-05-21T03:15:10.099Z,26.83
2023-05-21T03:17:39.930Z,24.80
2023-05-21T03:20:16.181Z,23.55
2023-05-21T03:22:45.076Z,25.67
2023-05-21T03:25:14.023Z,23.90
2023-05-21T03:27:42.335Z,27.23
2023-05-21T03:30:28.706Z,25.50
2023-05-21T03:33:18.651Z,24.77
2023-05-21T03:35:47.023Z,23.02
2023-05-21T03:38:15.712Z,26.00
2023-05-21T03:40:44.149Z,27.58
2023-05-21T03:43:12.502Z,25.00
2023-05-21T03:45:43.568Z,24.17
2023-05-21T03:48:32.555Z,25.52
2023-05-21T03:51:02.524Z,24.73
2023-05-21T03:53:30.674Z,27.13
2023-05-21T03:55:58.951Z,26.95
2023-05-21T03:58:28.122Z,23.10
2023-05-21T04:00:56.401Z,33.67
2023-05-21T04:03:25.013Z,26.85
2023-05-21T04:05:55.197Z,25.17
2023-05-21T04:08:24.279Z,27.73
2023-05-21T04:10:52.435Z,25.40
2023-05-21T04:13:20.732Z,23.15
2023-05-21T04:15:49.623Z,23.48
2023-05-21T04:18:17.944Z,25.77
2023-05-21T04:20:46.364Z,26.25
2023-05-21T04:23:15.873Z,27.35
2023-05-21T04:25:44.052Z,28.52
2023-05-21T04:28:12.482Z,24.20
2023-05-21T04:30:40.601Z,26.52
2023-05-21T04:33:10.134Z,26.88
2023-05-21T04:35:38.412Z,26.75
2023-05-21T04:38:06.660Z,27.15
2023-05-21T04:40:36.667Z,23.98
2023-05-21T04:43:05.216Z,24.15
2023-05-21T04:45:33.681Z,24.10
2023-05-21T04:48:03.078Z,26.77
2023-05-21T04:50:31.881Z,26.27
2023-05-21T04:53:00.144Z,27.95
2023-05-21T04:55:28.971Z,25.50
2023-05-21T04:57:58.786Z,24.58
2023-05-21T05:00:27.837Z,22.25
2023-05-21T05:02:56.335Z,23.08
2023-05-21T05:05:24.483Z,23.23
2023-05-21T05:07:52.999Z,25.58
2023-05-21T05:10:21.752Z,25.15
2023-05-21T05:12:50.248Z,23.90
2023-05-21T05:15:20.718Z,23.90
2023-05-21T05:17:50.572Z,24.70
2023-05-21T05:20:19.184Z,24.08
2023-05-21T05:22:47.411Z,25.60
2023-05-21T05:25:15.583Z,24.85
2023-05-21T05:27:44.122Z,28.45
2023-05-21T05:30:13.152Z,23.98
2023-05-21T05:32:42.843Z,27.40
2023-05-21T05:35:11.337Z,23.27
2023-05-21T05:37:39.913Z,21.98
2023-05-21T05:40:09.258Z,24.13
2023-05-21T05:42:37.436Z,19.90
2023-05-21T05:45:13.169Z,23.80
2023-05-21T05:47:43.294Z,26.52
2023-05-21T05:50:12.354Z,25.45
2023-05-21T05:52:40.713Z,22.45
2023-05-21T05:55:10.169Z,23.48
2023-05-21T05:57:38.728Z,24.30
2023-05-21T06:00:13.186Z,26.42
2023-05-21T06:02:45.923Z,21.75
2023-05-21T06:05:14.117Z,24.27
2023-05-21T06:07:42.532Z,28.17
2023-05-21T06:10:11.582Z,24.73
2023-05-21T06:12:39.810Z,22.33
2023-05-21T06:15:09.051Z,25.13
2023-05-21T06:17:37.847Z,22.38
2023-05-21T06:20:10.503Z,22.10
2023-05-21T06:22:39.086Z,19.92
2023-05-21T06:25:10.774Z,23.73
2023-05-21T06:27:39.699Z,24.23
2023-05-21T06:30:15.380Z,20.75
2023-05-21T06:32:44.674Z,22.10
2023-05-21T06:35:14.322Z,21.00
2023-05-21T06:37:43.068Z,22.65
2023-05-21T06:40:11.849Z,20.05
2023-05-21T06:42:41.236Z,23.63
2023-05-21T06:45:21.863Z,20.40
2023-05-21T06:47:53.132Z,19.23
2023-05-21T06:50:23.084Z,20.85
2023-05-21T06:52:51.817Z,20.35
2023-05-21T06:55:20.154Z,19.40
2023-05-21T06:58:06.532Z,18.20
2023-05-21T07:00:35.080Z,17.85
2023-05-21T07:03:03.894Z,17.48
2023-05-21T07:05:33.626Z,18.33
2023-05-21T07:08:02.060Z,17.98
2023-05-21T07:10:30.994Z,18.60
2023-05-21T07:12:59.236Z,17.08
2023-05-21T07:15:28.235Z,17.88
2023-05-21T07:17:56.739Z,17.02
2023-05-21T07:20:25.414Z,16.45
2023-05-21T07:22:57.891Z,18.63
2023-05-21T07:25:26.839Z,18.77
2023-05-21T07:27:55.117Z,17.35
2023-05-21T07:30:23.402Z,16.33
2023-05-21T07:32:52.013Z,17.75
2023-05-21T07:35:21.467Z,18.35
2023-05-21T07:37:50.306Z,18.40
2023-05-21T07:40:19.864Z,16.25
2023-05-21T07:42:48.337Z,16.70
2023-05-21T07:45:20.047Z,18.05
2023-05-21T07:47:48.246Z,18.90
2023-05-21T07:50:16.739Z,18.88
2023-05-21T07:52:45.162Z,19.15
2023-05-21T07:55:13.907Z,17.15
2023-05-21T07:57:45.407Z,18.05
2023-05-21T08:00:17.084Z,18.73
2023-05-21T08:02:50.504Z,18.00
2023-05-21T08:05:19.260Z,18.83
2023-05-21T08:07:47.716Z,18.77
2023-05-21T08:10:18.481Z,18.58
2023-05-21T08:12:50.038Z,18.55
2023-05-21T08:15:18.712Z,15.73
2023-05-21T08:17:47.265Z,18.45
2023-05-21T08:20:15.883Z,17.38
2023-05-21T08:22:46.471Z,17.13
2023-05-21T08:25:14.593Z,16.55
2023-05-21T08:27:43.105Z,18.10
2023-05-21T08:30:13.343Z,17.00
2023-05-21T08:32:41.712Z,16.67
2023-05-21T08:35:10.617Z,16.23
2023-05-21T08:37:57.811Z,19.67
2023-05-21T08:40:43.076Z,18.70
2023-05-21T08:43:16.492Z,16.23
2023-05-21T08:45:55.751Z,16.00
2023-05-21T08:48:27.426Z,16.90
2023-05-21T08:50:56.258Z,16.43
2023-05-21T08:53:34.054Z,15.00
2023-05-21T08:56:03.371Z,17.60
2023-05-21T08:58:47.324Z,14.67
2023-05-21T09:01:20.344Z,14.10
2023-05-21T09:03:59.087Z,15.30
2023-05-21T09:06:33.959Z,14.70
2023-05-21T09:09:09.894Z,15.00
2023-05-21T09:11:43.834Z,15.10
2023-05-21T09:14:12.868Z,16.13
2023-05-21T09:17:03.954Z,19.10
2023-05-21T09:19:33.166Z,16.57
2023-05-21T09:22:04.046Z,15.63
2023-05-21T09:24:36.313Z,16.33
2023-05-21T09:27:08.180Z,13.63
2023-05-21T09:29:37.096Z,14.57
2023-05-21T09:32:12.295Z,14.63
2023-05-21T09:34:42.562Z,14.77
2023-05-21T09:37:23.748Z,13.67
2023-05-21T09:39:55.674Z,14.60
2023-05-21T09:42:23.620Z,16.13
2023-05-21T09:44:51.904Z,15.33
2023-05-21T09:47:22.729Z,14.23
2023-05-21T09:49:51.005Z,15.93
2023-05-21T09:52:26.291Z,15.43
2023-05-21T09:54:54.939Z,13.50
2023-05-21T09:57:26.875Z,13.73
2023-05-21T09:59:55.946Z,13.53
2023-05-21T10:02:27.784Z,14.70
2023-05-21T10:04:57.956Z,15.23
2023-05-21T10:07:28.054Z,14.23
2023-05-21T10:09:58.157Z,15.33
2023-05-21T10:12:27.462Z,14.93
2023-05-21T10:15:01.387Z,16.03
2023-05-21T10:17:32.165Z,15.27
2023-05-21T10:20:01.688Z,15.37
2023-05-21T10:22:31.018Z,15.70
2023-05-21T10:25:01.110Z,14.90
2023-05-21T10:27:32.551Z,15.80
2023-05-21T10:30:01.981Z,14.50
2023-05-21T10:32:33.391Z,14.83
2023-05-21T10:35:03.160Z,14.90
2023-05-21T10:37:32.152Z,15.33
2023-05-21T10:40:00.440Z,14.57
2023-05-21T10:43:02.587Z,12.67
2023-05-21T10:45:52.694Z,14.00
2023-05-21T10:48:36.571Z,14.40
2023-05-21T10:51:19.949Z,12.97
2023-05-21T10:54:18.271Z,13.10
2023-05-21T10:56:54.279Z,12.73
2023-05-21T10:59:37.554Z,14.03
2023-05-21T11:02:07.572Z,17.47
2023-05-21T11:04:40.242Z,12.87
2023-05-21T11:07:08.678Z,13.00
2023-05-21T11:09:39.764Z,12.53
2023-05-21T11:12:10.041Z,12.20
2023-05-21T11:14:40.299Z,11.33
2023-05-21T11:17:14.802Z,11.57
2023-05-21T11:19:47.564Z,11.90
2023-05-21T11:22:23.872Z,11.97
2023-05-21T11:24:52.903Z,11.77
2023-05-21T11:27:34.958Z,11.07
2023-05-21T11:30:06.161Z,11.23
2023-05-21T11:32:37.854Z,11.60
2023-05-21T11:35:09.076Z,9.90
2023-05-21T11:37:40.715Z,11.10
2023-05-21T11:40:26.341Z,12.43
2023-05-21T11:42:55.842Z,11.07
2023-05-21T11:45:26.519Z,11.83
2023-05-21T11:47:56.319Z,11.47
2023-05-21T11:50:27.438Z,10.70
2023-05-21T11:52:56.112Z,11.33
2023-05-21T11:55:25.939Z,10.90
2023-05-21T11:57:56.010Z,11.90
2023-05-21T12:00:24.698Z,9.47
2023-05-21T12:02:55.772Z,10.73
2023-05-21T12:05:27.215Z,10.80
2023-05-21T12:07:56.777Z,9.97
2023-05-21T12:10:25.004Z,10.63
2023-05-21T12:12:56.808Z,11.03
2023-05-21T12:15:26.436Z,11.10
2023-05-21T12:17:56.171Z,10.50
2023-05-21T12:20:27.183Z,12.07
2023-05-21T12:22:55.279Z,11.90
2023-05-21T12:25:23.485Z,10.77
2023-05-21T12:27:52.815Z,10.37
2023-05-21T12:30:21.816Z,10.63
2023-05-21T12:32:50.322Z,9.60
2023-05-21T12:35:23.104Z,10.33
2023-05-21T12:37:53.531Z,12.40
2023-05-21T12:40:26.829Z,14.13
2023-05-21T12:43:04.500Z,13.37
2023-05-21T12:45:38.277Z,10.33
2023-05-21T12:48:15.042Z,11.83
2023-05-21T12:50:47.206Z,11.10
2023-05-21T12:53:19.722Z,10.03
2023-05-21T12:55:57.910Z,10.43
2023-05-21T12:58:41.853Z,9.77
2023-05-21T13:01:16.700Z,9.57
2023-05-21T13:03:52.510Z,9.17
2023-05-21T13:06:28.156Z,9.30
2023-05-21T13:09:05.774Z,8.10
2023-05-21T13:11:38.020Z,9.60
2023-05-21T13:14:11.667Z,8.03
2023-05-21T13:16:48.099Z,8.77
2023-05-21T13:19:23.170Z,8.90
2023-05-21T13:21:59.081Z,8.77
2023-05-21T13:24:39.361Z,9.00
2023-05-21T13:27:17.087Z,8.33
2023-05-21T13:29:55.539Z,8.77
2023-05-21T13:32:31.936Z,8.80
2023-05-21T13:35:08.147Z,8.43
2023-05-21T13:37:45.245Z,8.80
2023-05-21T13:40:22.383Z,8.30
2023-05-21T13:42:54.797Z,9.87
2023-05-21T13:45:29.843Z,9.30
2023-05-21T13:48:02.669Z,8.73
2023-05-21T13:50:38.690Z,8.20
2023-05-21T13:53:13.803Z,8.50
2023-05-21T13:55:55.905Z,8.63
2023-05-21T13:58:38.882Z,8.83
2023-05-21T14:01:15.962Z,9.33
2023-05-21T14:03:47.756Z,9.03
2023-05-21T14:06:15.910Z,9.20
2023-05-21T14:08:44.089Z,9.27
2023-05-21T14:11:13.505Z,7.60
2023-05-21T14:13:50.464Z,10.47
2023-05-21T14:16:31.428Z,11.20
2023-05-21T14:19:09.955Z,8.90
2023-05-21T14:21:47.318Z,9.40
2023-05-21T14:24:22.623Z,9.00
2023-05-21T14:26:59.041Z,8.23
2023-05-21T14:29:33.313Z,9.50
2023-05-21T14:32:08.799Z,9.83
2023-05-21T14:34:43.692Z,10.80
2023-05-21T14:37:22.781Z,10.67
2023-05-21T14:40:00.018Z,10.27
2023-05-21T14:42:34.685Z,10.23
2023-05-21T14:45:18.046Z,9.53
2023-05-21T14:47:55.408Z,10.07
2023-05-21T14:50:32.460Z,9.90
2023-05-21T14:53:06.912Z,9.73
2023-05-21T14:55:39.075Z,8.73
2023-05-21T14:58:14.189Z,9.10
2023-05-21T15:00:46.372Z,9.23
2023-05-21T15:03:16.614Z,9.67
2023-05-21T15:05:48.163Z,10.40
2023-05-21T15:08:20.444Z,10.40
2023-05-21T15:10:53.547Z,10.00
2023-05-21T15:13:29.832Z,9.20
2023-05-21T15:16:09.149Z,10.20
2023-05-21T15:18:43.121Z,9.33
2023-05-21T15:21:15.955Z,9.43
2023-05-21T15:23:51.057Z,10.10
2023-05-21T15:26:28.967Z,9.60
2023-05-21T15:29:07.660Z,9.30
2023-05-21T15:31:45.852Z,8.63
2023-05-21T15:34:22.812Z,10.90
2023-05-21T15:37:00.208Z,8.60
2023-05-21T15:39:34.023Z,11.10
2023-05-21T15:42:09.382Z,9.43
2023-05-21T15:44:50.125Z,9.27
2023-05-21T15:47:27.758Z,9.57
2023-05-21T15:50:05.804Z,9.30
2023-05-21T15:52:42.209Z,11.30
2023-05-21T15:55:17.595Z,9.57
2023-05-21T15:57:51.074Z,9.50
2023-05-21T16:00:26.758Z,12.20
2023-05-21T16:03:01.965Z,10.83
2023-05-21T16:05:31.184Z,11.23
2023-05-21T16:07:59.426Z,11.67
2023-05-21T16:10:27.622Z,12.63
2023-05-21T16:12:55.833Z,11.03
2023-05-21T16:15:25.500Z,12.20
2023-05-21T16:17:53.723Z,12.37
2023-05-21T16:20:22.758Z,12.27
2023-05-21T16:22:51.284Z,10.13
2023-05-21T16:25:19.591Z,10.97
2023-05-21T16:27:48.848Z,12.10
2023-05-21T16:30:17.095Z,10.97
2023-05-21T16:32:46.716Z,12.17
2023-05-21T16:35:15.034Z,10.33
2023-05-21T16:37:43.303Z,11.00
2023-05-21T16:40:12.199Z,10.13
2023-05-21T16:42:40.450Z,9.83
2023-05-21T16:45:10.842Z,10.03
2023-05-21T16:47:39.025Z,12.30
2023-05-21T16:50:10.566Z,10.70
2023-05-21T16:52:38.654Z,10.30
2023-05-21T16:55:07.545Z,10.13
2023-05-21T16:57:35.712Z,10.53
2023-05-21T17:00:04.966Z,10.73
2023-05-21T17:02:33.285Z,9.90
2023-05-21T17:05:01.406Z,10.20
2023-05-21T17:07:31.582Z,10.13
2023-05-21T17:09:59.758Z,10.20
2023-05-21T17:12:27.840Z,9.80
2023-05-21T17:14:55.937Z,10.50
2023-05-21T17:17:24.541Z,11.70
2023-05-21T17:19:52.653Z,12.17
2023-05-21T17:22:21.441Z,11.47
2023-05-21T17:24:51.120Z,12.10
2023-05-21T17:27:19.139Z,10.77
2023-05-21T17:29:47.393Z,10.67
2023-05-21T17:32:15.459Z,10.97
2023-05-21T17:34:44.232Z,13.00
2023-05-21T17:37:12.336Z,13.27
2023-05-21T17:39:40.793Z,10.73
2023-05-21T17:42:10.301Z,10.97
2023-05-21T17:44:38.632Z,11.07
2023-05-21T17:47:08.016Z,12.23
2023-05-21T17:49:36.209Z,11.93
2023-05-21T17:52:04.559Z,12.70
2023-05-21T17:54:32.604Z,12.87
2023-05-21T17:57:00.601Z,11.80
2023-05-21T17:59:30.152Z,11.27
2023-05-21T18:02:01.399Z,10.87
2023-05-21T18:04:29.843Z,10.93
2023-05-21T18:06:58.184Z,11.30
2023-05-21T18:09:26.155Z,11.70
2023-05-21T18:11:54.539Z,10.83
2023-05-21T18:14:22.594Z,11.93
2023-05-21T18:16:52.221Z,12.23
2023-05-21T18:19:20.401Z,11.20
2023-05-21T18:21:49.145Z,11.37
2023-05-21T18:24:17.286Z,11.17
2023-05-21T18:26:45.782Z,10.77
2023-05-21T18:29:15.053Z,15.23
2023-05-21T18:31:48.164Z,11.07
2023-05-21T18:34:18.982Z,12.43
2023-05-21T18:36:48.233Z,11.70
2023-05-21T18:39:16.516Z,11.73
2023-05-21T18:41:44.829Z,11.23
2023-05-21T18:44:13.103Z,13.10
2023-05-21T18:46:42.311Z,11.57
2023-05-21T18:49:10.670Z,12.30
2023-05-21T18:51:42.900Z,11.90
2023-05-21T18:54:11.126Z,10.40
2023-05-21T18:56:39.373Z,10.57
2023-05-21T18:59:07.843Z,11.03
2023-05-21T19:01:35.896Z,10.90
2023-05-21T19:04:04.303Z,10.77
2023-05-21T19:06:32.378Z,12.80
2023-05-21T19:09:02.144Z,11.93
2023-05-21T19:11:34.313Z,14.10
2023-05-21T19:14:02.488Z,12.10
2023-05-21T19:16:30.674Z,14.03
2023-05-21T19:18:58.940Z,11.83
2023-05-21T19:21:27.422Z,11.10
2023-05-21T19:23:55.616Z,12.57
2023-05-21T19:26:25.272Z,12.73
2023-05-21T19:28:54.784Z,11.60
2023-05-21T19:31:23.736Z,10.70
2023-05-21T19:33:52.220Z,12.00
2023-05-21T19:36:22.673Z,11.20
2023-05-21T19:38:51.651Z,11.30
2023-05-21T19:41:21.650Z,11.87
2023-05-21T19:43:51.750Z,12.27
2023-05-21T19:46:20.589Z,10.97
2023-05-21T19:48:49.706Z,12.75
2023-05-21T19:51:18.319Z,10.80
2023-05-21T19:53:46.621Z,11.63
2023-05-21T19:56:15.097Z,11.90
2023-05-21T19:58:46.999Z,12.23
2023-05-21T20:01:17.399Z,12.57
2023-05-21T20:03:46.217Z,11.13
2023-05-21T20:06:15.490Z,11.23
2023-05-21T20:08:43.782Z,13.27
2023-05-21T20:11:12.018Z,10.82
2023-05-21T20:13:40.249Z,11.00
2023-05-21T20:16:08.338Z,11.60
2023-05-21T20:18:37.966Z,11.20
2023-05-21T20:21:06.504Z,12.55
2023-05-21T20:23:34.661Z,11.45
2023-05-21T20:26:02.822Z,11.07
2023-05-21T20:28:30.966Z,12.03
2023-05-21T20:30:59.271Z,10.93
2023-05-21T20:33:28.922Z,11.67
2023-05-21T20:35:58.852Z,11.13
2023-05-21T20:38:27.651Z,11.63
2023-05-21T20:40:56.364Z,12.00
2023-05-21T20:43:25.636Z,14.18
2023-05-21T20:45:59.521Z,13.88
2023-05-21T20:48:29.047Z,12.25
2023-05-21T20:50:58.708Z,12.52
2023-05-21T20:53:26.811Z,12.90
2023-05-21T20:55:55.218Z,13.65
2023-05-21T20:58:25.755Z,13.93
2023-05-21T21:00:55.108Z,14.95
2023-05-21T21:03:23.291Z,15.38
2023-05-21T21:05:53.027Z,13.88
2023-05-21T21:08:22.531Z,12.82
2023-05-21T21:10:50.926Z,13.20
2023-05-21T21:13:19.352Z,15.20
2023-05-21T21:15:47.588Z,15.10
2023-05-21T21:18:16.280Z,15.40
2023-05-21T21:20:49.798Z,15.82
2023-05-21T21:23:18.030Z,15.25
2023-05-21T21:25:47.714Z,15.45
2023-05-21T21:28:15.877Z,14.23
2023-05-21T21:30:44.967Z,15.82
2023-05-21T21:33:14.609Z,14.60
2023-05-21T21:35:43.035Z,13.93
2023-05-21T21:38:11.395Z,13.68
2023-05-21T21:40:39.616Z,14.30
2023-05-21T21:43:09.458Z,14.88
2023-05-21T21:45:37.520Z,17.05
2023-05-21T21:48:06.229Z,14.30
2023-05-21T21:50:34.428Z,13.80
2023-05-21T21:53:03.586Z,14.15
2023-05-21T21:55:32.852Z,17.42
2023-05-21T21:58:00.880Z,15.38
2023-05-21T22:00:30.572Z,15.20
2023-05-21T22:02:58.666Z,14.63
2023-05-21T22:05:30.669Z,14.15
2023-05-21T22:07:58.721Z,14.98
2023-05-21T22:10:26.989Z,14.23
2023-05-21T22:12:55.153Z,15.10
2023-05-21T22:15:27.344Z,13.55
2023-05-21T22:17:57.068Z,14.23
2023-05-21T22:20:26.026Z,16.65
2023-05-21T22:22:55.420Z,14.25
2023-05-21T22:25:23.928Z,14.15
2023-05-21T22:27:52.316Z,14.35
2023-05-21T22:30:20.741Z,14.00
2023-05-21T22:32:49.459Z,14.40
2023-05-21T22:35:20.037Z,16.83
2023-05-21T22:37:48.137Z,14.40
2023-05-21T22:40:16.464Z,14.43
2023-05-21T22:42:46.991Z,14.50
2023-05-21T22:45:15.360Z,15.45
2023-05-21T22:47:43.629Z,15.52
2023-05-21T22:50:12.845Z,14.10
2023-05-21T22:52:43.172Z,14.95
2023-05-21T22:55:11.782Z,15.88
2023-05-21T22:57:40.106Z,13.55
2023-05-21T23:00:10.863Z,19.23
2023-05-21T23:02:39.039Z,14.82
2023-05-21T23:05:07.675Z,14.93
2023-05-21T23:07:35.859Z,15.10
2023-05-21T23:10:05.892Z,18.08
2023-05-21T23:12:38.849Z,13.75
2023-05-21T23:15:07.617Z,13.23
2023-05-21T23:17:36.069Z,15.10
2023-05-21T23:20:04.211Z,18.10
2023-05-21T23:22:32.490Z,14.82
2023-05-21T23:25:02.220Z,14.60
2023-05-21T23:27:33.183Z,14.77
2023-05-21T23:30:01.605Z,14.70
2023-05-21T23:32:30.541Z,13.52
2023-05-21T23:34:58.560Z,15.23
2023-05-21T23:37:30.106Z,14.45
2023-05-21T23:40:00.156Z,15.20
2023-05-21T23:42:31.309Z,15.15
2023-05-21T23:45:00.796Z,15.55
2023-05-21T23:47:28.840Z,14.95
2023-05-21T23:49:57.094Z,14.02
2023-05-21T23:52:25.187Z,14.10
2023-05-21T23:54:53.417Z,15.00
2023-05-21T23:57:21.427Z,16.88
2023-05-21T23:59:49.418Z,15.90
